sensor_id;sensor_type;location;lat;lon;timestamp;P1;durP1;ratioP1;P2;durP2;ratioP2
50649;SDS011;36621;60.058;30.346;2023-10-09T00:02:15;1.20;;;1.10;;
50649;SDS011;36621;60.058;30.346;2023-10-09T00:09:48;1.73;;;1.08;;
50649;SDS011;36621;60.058;30.346;2023-10-09T00:17:22;1.38;;;1.15;;
50649;SDS011;36621;60.058;30.346;2023-10-09T00:24:55;1.23;;;1.02;;
50649;SDS011;36621;60.058;30.346;2023-10-09T00:32:44;1.48;;;1.13;;
50649;SDS011;36621;60.058;30.346;2023-10-09T00:40:30;1.88;;;1.10;;
50649;SDS011;36621;60.058;30.346;2023-10-09T00:48:06;1.10;;;0.90;;
50649;SDS011;36621;60.058;30.346;2023-10-09T00:55:39;3.17;;;1.08;;
50649;SDS011;36621;60.058;30.346;2023-10-09T01:03:17;1.55;;;1.10;;
50649;SDS011;36621;60.058;30.346;2023-10-09T01:10:52;1.13;;;1.00;;
50649;SDS011;36621;60.058;30.346;2023-10-09T01:18:28;2.63;;;1.17;;
50649;SDS011;36621;60.058;30.346;2023-10-09T01:26:07;3.13;;;1.13;;
50649;SDS011;36621;60.058;30.346;2023-10-09T01:33:39;2.40;;;1.20;;
50649;SDS011;36621;60.058;30.346;2023-10-09T01:41:13;3.20;;;1.15;;
50649;SDS011;36621;60.058;30.346;2023-10-09T01:48:50;1.40;;;1.08;;
50649;SDS011;36621;60.058;30.346;2023-10-09T01:56:25;1.10;;;1.00;;
50649;SDS011;36621;60.058;30.346;2023-10-09T02:03:57;1.55;;;1.00;;
50649;SDS011;36621;60.058;30.346;2023-10-09T02:11:37;1.40;;;1.05;;
50649;SDS011;36621;60.058;30.346;2023-10-09T02:19:14;4.07;;;1.70;;
50649;SDS011;36621;60.058;30.346;2023-10-09T02:27:02;1.90;;;1.08;;
50649;SDS011;36621;60.058;30.346;2023-10-09T02:34:38;1.10;;;0.90;;
50649;SDS011;36621;60.058;30.346;2023-10-09T02:42:11;2.00;;;1.20;;
50649;SDS011;36621;60.058;30.346;2023-10-09T02:49:55;1.40;;;1.30;;
50649;SDS011;36621;60.058;30.346;2023-10-09T02:57:38;1.63;;;1.27;;
50649;SDS011;36621;60.058;30.346;2023-10-09T03:05:12;2.30;;;1.30;;
50649;SDS011;36621;60.058;30.346;2023-10-09T03:12:46;1.60;;;1.05;;
50649;SDS011;36621;60.058;30.346;2023-10-09T03:20:22;1.38;;;1.10;;
50649;SDS011;36621;60.058;30.346;2023-10-09T03:27:55;1.40;;;1.30;;
50649;SDS011;36621;60.058;30.346;2023-10-09T03:35:29;2.20;;;1.27;;
50649;SDS011;36621;60.058;30.346;2023-10-09T03:43:05;2.35;;;1.55;;
50649;SDS011;36621;60.058;30.346;2023-10-09T03:50:38;2.30;;;1.10;;
50649;SDS011;36621;60.058;30.346;2023-10-09T03:58:12;1.40;;;1.13;;
50649;SDS011;36621;60.058;30.346;2023-10-09T04:05:46;1.40;;;1.27;;
50649;SDS011;36621;60.058;30.346;2023-10-09T04:13:19;3.67;;;1.20;;
50649;SDS011;36621;60.058;30.346;2023-10-09T04:20:54;3.35;;;1.38;;
50649;SDS011;36621;60.058;30.346;2023-10-09T04:28:50;1.65;;;1.23;;
50649;SDS011;36621;60.058;30.346;2023-10-09T04:36:23;1.70;;;1.15;;
50649;SDS011;36621;60.058;30.346;2023-10-09T04:44:00;1.33;;;1.20;;
50649;SDS011;36621;60.058;30.346;2023-10-09T04:51:50;2.10;;;1.40;;
50649;SDS011;36621;60.058;30.346;2023-10-09T04:59:36;1.95;;;1.30;;
50649;SDS011;36621;60.058;30.346;2023-10-09T05:07:17;2.47;;;1.50;;
50649;SDS011;36621;60.058;30.346;2023-10-09T05:14:57;2.10;;;1.33;;
50649;SDS011;36621;60.058;30.346;2023-10-09T05:22:40;2.50;;;1.80;;
50649;SDS011;36621;60.058;30.346;2023-10-09T05:30:25;1.65;;;1.45;;
50649;SDS011;36621;60.058;30.346;2023-10-09T05:37:58;2.00;;;1.50;;
50649;SDS011;36621;60.058;30.346;2023-10-09T05:45:36;2.67;;;1.60;;
50649;SDS011;36621;60.058;30.346;2023-10-09T05:53:22;3.60;;;2.53;;
50649;SDS011;36621;60.058;30.346;2023-10-09T06:01:18;3.50;;;2.50;;
50649;SDS011;36621;60.058;30.346;2023-10-09T06:09:09;2.60;;;1.95;;
50649;SDS011;36621;60.058;30.346;2023-10-09T06:16:56;4.18;;;2.17;;
50649;SDS011;36621;60.058;30.346;2023-10-09T06:24:48;2.60;;;1.80;;
50649;SDS011;36621;60.058;30.346;2023-10-09T06:32:26;5.03;;;2.80;;
50649;SDS011;36621;60.058;30.346;2023-10-09T06:40:08;3.22;;;2.30;;
50649;SDS011;36621;60.058;30.346;2023-10-09T06:47:59;7.63;;;4.00;;
50649;SDS011;36621;60.058;30.346;2023-10-09T06:55:41;3.72;;;3.08;;
50649;SDS011;36621;60.058;30.346;2023-10-09T07:03:20;2.38;;;2.17;;
50649;SDS011;36621;60.058;30.346;2023-10-09T07:11:01;3.85;;;2.05;;
50649;SDS011;36621;60.058;30.346;2023-10-09T07:18:52;2.10;;;1.65;;
50649;SDS011;36621;60.058;30.346;2023-10-09T07:26:25;2.85;;;2.10;;
50649;SDS011;36621;60.058;30.346;2023-10-09T12:54:14;5.05;;;2.35;;
50649;SDS011;36621;60.058;30.346;2023-10-09T13:01:47;4.23;;;2.67;;
50649;SDS011;36621;60.058;30.346;2023-10-09T13:09:24;3.60;;;2.15;;
50649;SDS011;36621;60.058;30.346;2023-10-09T13:17:05;3.67;;;2.72;;
50649;SDS011;36621;60.058;30.346;2023-10-09T13:24:41;3.40;;;2.30;;
50649;SDS011;36621;60.058;30.346;2023-10-09T13:32:14;8.63;;;7.50;;
50649;SDS011;36621;60.058;30.346;2023-10-09T13:39:47;2.10;;;1.90;;
50649;SDS011;36621;60.058;30.346;2023-10-09T13:47:23;5.97;;;2.95;;
50649;SDS011;36621;60.058;30.346;2023-10-09T14:02:46;3.33;;;3.00;;
50649;SDS011;36621;60.058;30.346;2023-10-09T14:10:19;4.00;;;3.05;;
50649;SDS011;36621;60.058;30.346;2023-10-09T14:17:56;3.47;;;2.58;;
50649;SDS011;36621;60.058;30.346;2023-10-09T14:25:29;4.38;;;2.28;;
50649;SDS011;36621;60.058;30.346;2023-10-09T14:33:02;3.58;;;2.50;;
50649;SDS011;36621;60.058;30.346;2023-10-09T14:40:35;3.28;;;2.65;;
50649;SDS011;36621;60.058;30.346;2023-10-09T14:48:12;8.10;;;5.47;;
50649;SDS011;36621;60.058;30.346;2023-10-09T14:55:45;6.93;;;3.50;;
50649;SDS011;36621;60.058;30.346;2023-10-09T15:03:18;8.88;;;3.60;;
50649;SDS011;36621;60.058;30.346;2023-10-09T15:10:51;4.22;;;2.85;;
50649;SDS011;36621;60.058;30.346;2023-10-09T15:18:26;5.80;;;2.83;;
50649;SDS011;36621;60.058;30.346;2023-10-09T15:26:00;13.48;;;7.25;;
50649;SDS011;36621;60.058;30.346;2023-10-09T15:33:32;11.95;;;5.57;;
50649;SDS011;36621;60.058;30.346;2023-10-09T15:41:06;6.47;;;3.13;;
50649;SDS011;36621;60.058;30.346;2023-10-09T15:48:38;7.13;;;4.70;;
50649;SDS011;36621;60.058;30.346;2023-10-09T15:56:12;5.00;;;3.30;;
50649;SDS011;36621;60.058;30.346;2023-10-09T16:03:45;9.50;;;4.18;;
50649;SDS011;36621;60.058;30.346;2023-10-09T16:11:19;6.93;;;3.50;;
50649;SDS011;36621;60.058;30.346;2023-10-09T16:18:54;7.00;;;3.30;;
50649;SDS011;36621;60.058;30.346;2023-10-09T16:26:27;4.95;;;2.80;;
50649;SDS011;36621;60.058;30.346;2023-10-09T16:33:59;11.30;;;4.15;;
50649;SDS011;36621;60.058;30.346;2023-10-09T16:41:32;5.72;;;3.65;;
50649;SDS011;36621;60.058;30.346;2023-10-09T16:49:08;7.38;;;4.50;;
50649;SDS011;36621;60.058;30.346;2023-10-09T16:56:43;9.40;;;5.38;;
50649;SDS011;36621;60.058;30.346;2023-10-09T17:04:15;4.65;;;3.63;;
50649;SDS011;36621;60.058;30.346;2023-10-09T17:11:49;6.38;;;3.55;;
50649;SDS011;36621;60.058;30.346;2023-10-09T17:19:24;3.63;;;2.85;;
50649;SDS011;36621;60.058;30.346;2023-10-09T17:26:57;3.17;;;2.40;;
50649;SDS011;36621;60.058;30.346;2023-10-09T17:34:30;5.25;;;2.67;;
50649;SDS011;36621;60.058;30.346;2023-10-09T17:42:11;5.93;;;2.42;;
50649;SDS011;36621;60.058;30.346;2023-10-09T17:49:45;5.68;;;3.17;;
50649;SDS011;36621;60.058;30.346;2023-10-09T17:57:19;6.07;;;2.97;;
50649;SDS011;36621;60.058;30.346;2023-10-09T18:04:52;6.70;;;3.47;;
50649;SDS011;36621;60.058;30.346;2023-10-09T18:12:25;16.45;;;5.40;;
50649;SDS011;36621;60.058;30.346;2023-10-09T18:19:58;9.38;;;4.20;;
50649;SDS011;36621;60.058;30.346;2023-10-09T18:27:31;7.43;;;2.85;;
50649;SDS011;36621;60.058;30.346;2023-10-09T18:35:07;3.63;;;2.85;;
50649;SDS011;36621;60.058;30.346;2023-10-09T18:42:56;7.45;;;3.30;;
50649;SDS011;36621;60.058;30.346;2023-10-09T18:50:29;7.85;;;4.22;;
50649;SDS011;36621;60.058;30.346;2023-10-09T18:58:02;10.80;;;4.88;;
50649;SDS011;36621;60.058;30.346;2023-10-09T19:05:35;8.10;;;5.03;;
50649;SDS011;36621;60.058;30.346;2023-10-09T19:13:13;8.05;;;5.07;;
50649;SDS011;36621;60.058;30.346;2023-10-09T19:20:45;7.80;;;4.95;;
50649;SDS011;36621;60.058;30.346;2023-10-09T19:28:18;11.75;;;4.90;;
50649;SDS011;36621;60.058;30.346;2023-10-09T19:35:51;10.05;;;5.43;;
50649;SDS011;36621;60.058;30.346;2023-10-09T19:43:24;8.07;;;4.10;;
50649;SDS011;36621;60.058;30.346;2023-10-09T19:50:58;7.22;;;4.55;;
50649;SDS011;36621;60.058;30.346;2023-10-09T19:58:31;9.60;;;4.20;;
50649;SDS011;36621;60.058;30.346;2023-10-09T20:06:03;10.77;;;5.50;;
50649;SDS011;36621;60.058;30.346;2023-10-09T20:13:37;8.95;;;5.50;;
50649;SDS011;36621;60.058;30.346;2023-10-09T20:21:09;8.60;;;3.97;;
50649;SDS011;36621;60.058;30.346;2023-10-09T20:28:43;9.30;;;5.00;;
50649;SDS011;36621;60.058;30.346;2023-10-09T20:36:16;19.80;;;12.75;;
50649;SDS011;36621;60.058;30.346;2023-10-09T20:43:50;9.82;;;5.70;;
50649;SDS011;36621;60.058;30.346;2023-10-09T20:51:23;12.18;;;7.10;;
50649;SDS011;36621;60.058;30.346;2023-10-09T20:58:56;9.73;;;5.43;;
50649;SDS011;36621;60.058;30.346;2023-10-09T21:06:29;14.20;;;7.07;;
50649;SDS011;36621;60.058;30.346;2023-10-09T21:14:01;9.55;;;4.68;;
50649;SDS011;36621;60.058;30.346;2023-10-09T21:21:35;8.75;;;4.63;;
50649;SDS011;36621;60.058;30.346;2023-10-09T21:29:09;8.15;;;4.70;;
50649;SDS011;36621;60.058;30.346;2023-10-09T21:36:42;10.32;;;4.63;;
50649;SDS011;36621;60.058;30.346;2023-10-09T21:44:15;9.98;;;4.00;;
50649;SDS011;36621;60.058;30.346;2023-10-09T21:51:47;5.75;;;4.03;;
50649;SDS011;36621;60.058;30.346;2023-10-09T21:59:21;6.90;;;3.45;;
50649;SDS011;36621;60.058;30.346;2023-10-09T22:06:54;8.00;;;3.50;;
50649;SDS011;36621;60.058;30.346;2023-10-09T22:14:26;10.10;;;4.60;;
50649;SDS011;36621;60.058;30.346;2023-10-09T22:21:59;7.55;;;4.68;;
50649;SDS011;36621;60.058;30.346;2023-10-09T22:29:31;8.43;;;4.95;;
50649;SDS011;36621;60.058;30.346;2023-10-09T22:37:04;8.32;;;3.80;;
50649;SDS011;36621;60.058;30.346;2023-10-09T22:44:44;7.00;;;3.55;;
50649;SDS011;36621;60.058;30.346;2023-10-09T22:52:19;5.85;;;3.72;;
50649;SDS011;36621;60.058;30.346;2023-10-09T22:59:55;5.50;;;3.83;;
50649;SDS011;36621;60.058;30.346;2023-10-09T23:07:31;5.80;;;3.90;;
50649;SDS011;36621;60.058;30.346;2023-10-09T23:15:05;4.82;;;3.17;;
50649;SDS011;36621;60.058;30.346;2023-10-09T23:22:41;6.57;;;3.70;;
50649;SDS011;36621;60.058;30.346;2023-10-09T23:30:19;5.28;;;2.83;;
50649;SDS011;36621;60.058;30.346;2023-10-09T23:37:57;6.23;;;2.97;;
50649;SDS011;36621;60.058;30.346;2023-10-09T23:45:47;6.93;;;3.40;;
50649;SDS011;36621;60.058;30.346;2023-10-09T23:53:28;5.80;;;3.05;;
